createdAt,value
2022-10-23T00:01:26.525Z,3.20
2022-10-23T00:04:01.775Z,3.40
2022-10-23T00:06:29.691Z,4.03
2022-10-23T00:08:56.472Z,3.17
2022-10-23T00:11:25.395Z,5.27
2022-10-23T00:13:54.519Z,3.10
2022-10-23T00:16:21.187Z,2.83
2022-10-23T00:18:47.825Z,3.20
2022-10-23T00:21:15.875Z,3.67
2022-10-23T00:23:42.731Z,3.50
2022-10-23T00:26:11.348Z,3.37
2022-10-23T00:28:38.270Z,3.30
2022-10-23T00:31:05.688Z,3.40
2022-10-23T00:33:33.078Z,2.60
2022-10-23T00:35:59.987Z,4.30
2022-10-23T00:38:26.470Z,3.20
2022-10-23T00:40:52.913Z,3.07
2022-10-23T00:43:26.581Z,3.23
2022-10-23T00:45:53.569Z,2.63
2022-10-23T00:48:20.465Z,3.37
2022-10-23T00:50:49.240Z,2.90
2022-10-23T00:53:18.339Z,3.00
2022-10-23T00:55:47.123Z,3.00
2022-10-23T00:58:15.091Z,3.40
2022-10-23T01:00:48.577Z,3.33
2022-10-23T01:03:17.795Z,3.23
2022-10-23T01:06:06.989Z,3.07
2022-10-23T01:08:42.558Z,3.20
2022-10-23T01:11:28.907Z,2.97
2022-10-23T01:16:52.439Z,2.97
2022-10-23T01:19:46.387Z,3.30
2022-10-23T01:22:30.827Z,2.90
2022-10-23T01:25:34.401Z,3.00
2022-10-23T01:28:05.367Z,3.00
2022-10-23T01:30:34.094Z,3.20
2022-10-23T01:33:08.159Z,3.20
2022-10-23T01:35:40.960Z,2.67
2022-10-23T01:38:35.730Z,2.80
2022-10-23T01:41:17.832Z,3.00
2022-10-23T01:43:51.672Z,2.73
2022-10-23T01:46:18.454Z,3.03
2022-10-23T01:48:56.101Z,3.10
2022-10-23T01:51:26.979Z,3.40
2022-10-23T01:53:57.391Z,3.67
2022-10-23T01:56:28.757Z,3.43
2022-10-23T01:58:58.290Z,3.17
2022-10-23T02:01:27.953Z,2.97
2022-10-23T02:04:00.315Z,3.07
2022-10-23T02:06:26.846Z,3.07
2022-10-23T02:08:53.271Z,2.50
2022-10-23T02:11:21.780Z,3.20
2022-10-23T02:13:59.792Z,2.73
2022-10-23T02:16:37.348Z,2.87
2022-10-23T02:19:30.006Z,2.77
2022-10-23T02:22:06.543Z,2.80
2022-10-23T02:24:36.201Z,2.93
2022-10-23T02:27:10.236Z,2.40
2022-10-23T02:29:42.785Z,3.20
2022-10-23T02:32:11.263Z,3.63
2022-10-23T02:34:37.957Z,3.40
2022-10-23T02:37:04.586Z,3.13
2022-10-23T02:39:31.100Z,3.13
2022-10-23T02:42:09.259Z,3.30
2022-10-23T02:45:00.158Z,3.10
2022-10-23T02:47:47.013Z,2.80
2022-10-23T02:50:22.089Z,3.00
2022-10-23T02:53:13.398Z,2.87
2022-10-23T02:56:11.085Z,2.87
2022-10-23T02:58:42.176Z,2.60
2022-10-23T03:01:14.977Z,2.80
2022-10-23T03:04:03.024Z,2.90
2022-10-23T03:06:29.420Z,4.50
2022-10-23T03:09:04.838Z,2.60
2022-10-23T03:11:31.279Z,3.07
2022-10-23T03:13:57.733Z,3.07
2022-10-23T03:16:24.882Z,2.93
2022-10-23T03:18:51.405Z,2.90
2022-10-23T03:21:17.867Z,2.87
2022-10-23T03:23:44.325Z,3.23
2022-10-23T03:26:10.822Z,2.60
2022-10-23T03:28:37.307Z,2.77
2022-10-23T03:31:04.030Z,3.13
2022-10-23T03:33:31.648Z,2.40
2022-10-23T03:35:58.073Z,4.03
2022-10-23T03:38:24.510Z,2.60
2022-10-23T03:40:51.038Z,2.70
2022-10-23T03:43:17.466Z,3.70
2022-10-23T03:45:43.915Z,3.20
2022-10-23T03:48:10.770Z,2.90
2022-10-23T03:50:37.227Z,3.47
2022-10-23T03:53:03.719Z,2.60
2022-10-23T03:55:34.453Z,2.90
2022-10-23T03:58:00.863Z,2.80
2022-10-23T04:00:27.451Z,3.00
2022-10-23T04:02:53.930Z,2.30
2022-10-23T04:05:20.314Z,2.80
2022-10-23T04:07:46.723Z,3.70
2022-10-23T04:10:13.107Z,3.07
2022-10-23T04:12:39.715Z,3.00
2022-10-23T04:15:06.709Z,3.47
2022-10-23T04:17:33.149Z,2.70
2022-10-23T04:19:59.561Z,2.73
2022-10-23T04:22:28.303Z,3.00
2022-10-23T04:24:55.253Z,2.30
2022-10-23T04:27:21.726Z,2.20
2022-10-23T04:29:49.105Z,2.43
2022-10-23T04:32:15.519Z,2.20
2022-10-23T04:34:41.906Z,2.60
2022-10-23T04:37:08.322Z,2.60
2022-10-23T04:39:34.746Z,2.33
2022-10-23T04:42:01.172Z,2.60
2022-10-23T04:44:27.626Z,2.80
2022-10-23T04:46:54.122Z,2.80
2022-10-23T04:49:20.580Z,2.50
2022-10-23T04:51:46.984Z,2.80
2022-10-23T04:54:13.485Z,3.07
2022-10-23T04:56:39.906Z,2.77
2022-10-23T05:01:37.926Z,2.87
2022-10-23T05:04:04.836Z,2.57
2022-10-23T05:06:31.248Z,2.50
2022-10-23T05:08:57.658Z,2.63
2022-10-23T05:11:24.080Z,2.73
2022-10-23T05:13:50.547Z,2.17
2022-10-23T05:16:46.527Z,2.30
2022-10-23T05:19:21.979Z,2.60
2022-10-23T05:21:55.754Z,2.43
2022-10-23T05:24:23.807Z,2.90
2022-10-23T05:26:52.787Z,2.70
2022-10-23T05:29:20.400Z,2.77
2022-10-23T05:31:48.906Z,2.97
2022-10-23T05:34:19.982Z,2.70
2022-10-23T05:36:47.169Z,2.90
2022-10-23T05:39:13.724Z,2.57
2022-10-23T05:41:40.136Z,2.80
2022-10-23T05:44:06.507Z,2.97
2022-10-23T05:46:32.916Z,2.70
2022-10-23T05:51:30.625Z,2.50
2022-10-23T05:53:57.054Z,3.37
2022-10-23T05:56:23.464Z,2.60
2022-10-23T05:58:49.837Z,2.60
2022-10-23T06:01:17.992Z,2.53
2022-10-23T06:03:44.955Z,3.10
2022-10-23T06:06:11.466Z,2.73
2022-10-23T06:08:37.886Z,3.17
2022-10-23T06:11:13.452Z,2.40
2022-10-23T06:13:42.158Z,2.67
2022-10-23T06:16:14.291Z,2.63
2022-10-23T06:18:41.100Z,3.10
2022-10-23T06:21:08.862Z,2.30
2022-10-23T06:23:37.011Z,2.80
2022-10-23T06:26:04.503Z,3.00
2022-10-23T06:28:31.040Z,3.60
2022-10-23T06:30:57.447Z,3.57
2022-10-23T06:33:23.953Z,3.60
2022-10-23T06:35:50.364Z,2.97
2022-10-23T06:38:16.834Z,3.00
2022-10-23T06:40:45.523Z,3.40
2022-10-23T06:43:11.910Z,3.30
2022-10-23T06:45:38.304Z,3.60
2022-10-23T06:48:05.054Z,3.30
2022-10-23T06:50:31.458Z,3.00
2022-10-23T06:52:57.951Z,3.13
2022-10-23T06:55:24.570Z,2.93
2022-10-23T06:57:51.050Z,2.90
2022-10-23T07:00:17.820Z,3.53
2022-10-23T07:02:45.173Z,3.90
2022-10-23T07:05:13.664Z,4.47
2022-10-23T07:07:40.584Z,6.60
2022-10-23T07:10:07.437Z,6.10
2022-10-23T07:12:33.949Z,6.27
2022-10-23T07:15:00.345Z,4.40
2022-10-23T07:17:28.992Z,4.10
2022-10-23T07:19:55.402Z,7.00
2022-10-23T07:22:21.780Z,5.53
2022-10-23T07:24:48.186Z,4.13
2022-10-23T07:27:14.643Z,2.77
2022-10-23T07:29:42.026Z,2.57
2022-10-23T07:32:09.269Z,2.30
2022-10-23T07:34:36.875Z,2.50
2022-10-23T07:37:03.430Z,2.40
2022-10-23T07:39:29.907Z,3.07
2022-10-23T07:41:56.341Z,5.80
2022-10-23T07:44:25.628Z,3.30
2022-10-23T07:46:54.116Z,2.90
2022-10-23T07:49:20.572Z,2.53
2022-10-23T07:51:50.531Z,2.70
2022-10-23T07:54:18.573Z,2.77
2022-10-23T07:56:45.123Z,2.50
2022-10-23T07:59:14.660Z,2.33
2022-10-23T08:01:47.100Z,3.47
2022-10-23T08:04:14.187Z,3.13
2022-10-23T08:06:40.624Z,3.40
2022-10-23T08:09:07.259Z,2.80
2022-10-23T08:11:35.596Z,2.53
2022-10-23T08:14:04.611Z,2.17
2022-10-23T08:16:34.272Z,2.40
2022-10-23T08:19:01.794Z,4.37
2022-10-23T08:21:28.733Z,2.80
2022-10-23T08:24:00.082Z,2.67
2022-10-23T08:26:29.410Z,2.80
2022-10-23T08:28:56.361Z,2.57
2022-10-23T08:31:23.238Z,2.80
2022-10-23T08:36:28.488Z,2.00
2022-10-23T08:38:56.522Z,2.30
2022-10-23T08:41:44.098Z,2.33
2022-10-23T08:44:34.173Z,2.57
2022-10-23T08:47:15.512Z,2.73
2022-10-23T08:49:50.964Z,2.60
2022-10-23T08:52:27.531Z,1.97
2022-10-23T08:55:00.489Z,2.47
2022-10-23T08:57:37.741Z,2.10
2022-10-23T09:00:20.491Z,2.07
2022-10-23T09:02:50.806Z,2.20
2022-10-23T09:05:55.705Z,2.00
2022-10-23T09:08:43.363Z,2.00
2022-10-23T09:11:54.887Z,4.10
2022-10-23T09:14:49.277Z,1.83
2022-10-23T09:17:26.918Z,2.10
2022-10-23T09:20:05.230Z,2.20
2022-10-23T09:22:31.742Z,2.37
2022-10-23T09:24:58.133Z,1.90
2022-10-23T09:27:24.661Z,1.70
2022-10-23T09:29:54.368Z,2.00
2022-10-23T09:32:32.972Z,1.97
2022-10-23T09:34:59.421Z,2.60
2022-10-23T09:37:29.456Z,1.90
2022-10-23T09:40:21.508Z,2.43
2022-10-23T09:43:00.105Z,2.07
2022-10-23T09:45:34.995Z,1.77
2022-10-23T09:48:09.775Z,1.83
2022-10-23T09:50:36.335Z,2.10
2022-10-23T09:53:02.948Z,1.97
2022-10-23T09:55:29.751Z,2.10
2022-10-23T09:57:56.301Z,2.00
2022-10-23T10:00:27.627Z,2.63
2022-10-23T10:03:06.099Z,2.20
2022-10-23T10:05:42.130Z,3.37
2022-10-23T10:08:20.642Z,2.07
2022-10-23T10:10:51.687Z,2.23
2022-10-23T10:13:30.075Z,1.90
2022-10-23T10:16:23.681Z,2.97
2022-10-23T10:19:05.979Z,2.93
2022-10-23T10:22:08.841Z,2.67
2022-10-23T10:24:52.446Z,2.07
2022-10-23T10:27:25.020Z,2.23
2022-10-23T10:30:15.813Z,1.93
2022-10-23T10:32:58.000Z,2.20
2022-10-23T10:35:55.460Z,2.47
2022-10-23T10:38:58.686Z,2.23
2022-10-23T10:41:28.111Z,1.83
2022-10-23T10:44:03.243Z,2.47
2022-10-23T10:47:25.588Z,2.77
2022-10-23T10:50:03.019Z,2.13
2022-10-23T10:53:17.985Z,2.80
2022-10-23T10:55:49.190Z,3.07
2022-10-23T10:58:43.872Z,2.60
2022-10-23T11:01:16.513Z,3.47
2022-10-23T11:03:51.849Z,3.20
2022-10-23T11:06:22.642Z,2.30
2022-10-23T11:08:57.442Z,2.77
2022-10-23T11:11:37.819Z,2.07
2022-10-23T11:14:04.473Z,2.07
2022-10-23T11:16:37.110Z,2.37
2022-10-23T11:19:11.451Z,2.20
2022-10-23T11:22:05.373Z,2.20
2022-10-23T11:24:49.099Z,2.30
2022-10-23T11:27:47.409Z,2.07
2022-10-23T11:30:22.784Z,2.20
2022-10-23T11:33:08.051Z,2.17
2022-10-23T11:36:04.258Z,2.27
2022-10-23T11:38:34.802Z,2.70
2022-10-23T11:41:04.762Z,2.50
2022-10-23T11:43:47.347Z,2.20
2022-10-23T11:46:25.380Z,2.30
2022-10-23T11:48:53.711Z,2.47
2022-10-23T11:51:27.568Z,3.20
2022-10-23T11:54:22.347Z,2.23
2022-10-23T11:56:54.750Z,2.40
2022-10-23T11:59:27.855Z,2.63
2022-10-23T12:01:56.769Z,2.70
2022-10-23T12:04:41.099Z,2.37
2022-10-23T12:07:32.914Z,1.77
2022-10-23T12:10:03.033Z,2.20
2022-10-23T12:12:43.128Z,1.63
2022-10-23T12:15:15.371Z,2.00
2022-10-23T12:17:43.837Z,2.60
2022-10-23T12:20:10.612Z,1.80
2022-10-23T12:23:05.239Z,1.97
2022-10-23T12:26:08.730Z,2.00
2022-10-23T12:28:45.774Z,1.73
2022-10-23T12:31:38.419Z,2.00
2022-10-23T12:34:23.099Z,2.20
2022-10-23T12:37:18.987Z,2.00
2022-10-23T12:39:52.946Z,2.10
2022-10-23T12:42:24.969Z,3.30
2022-10-23T12:45:12.803Z,1.80
2022-10-23T12:47:40.059Z,2.00
2022-10-23T12:50:35.853Z,2.20
2022-10-23T12:53:06.651Z,2.10
2022-10-23T12:55:55.627Z,2.47
2022-10-23T12:58:25.329Z,2.20
2022-10-23T13:00:57.031Z,2.70
2022-10-23T13:03:25.945Z,2.50
2022-10-23T13:05:54.629Z,2.13
2022-10-23T13:08:23.081Z,2.40
2022-10-23T13:10:50.400Z,2.70
2022-10-23T13:13:24.076Z,2.97
2022-10-23T13:15:50.887Z,2.63
2022-10-23T13:18:18.059Z,2.67
2022-10-23T13:20:58.341Z,2.40
2022-10-23T13:23:34.768Z,2.20
2022-10-23T13:26:07.240Z,2.23
2022-10-23T13:28:41.630Z,2.30
2022-10-23T13:31:24.229Z,2.67
2022-10-23T13:34:17.288Z,2.40
2022-10-23T13:36:53.710Z,2.13
2022-10-23T13:39:26.061Z,2.10
2022-10-23T13:41:52.564Z,2.30
2022-10-23T13:44:22.041Z,2.00
2022-10-23T13:46:48.724Z,2.40
2022-10-23T13:49:15.986Z,2.03
2022-10-23T13:51:49.879Z,2.40
2022-10-23T13:54:19.815Z,2.40
2022-10-23T13:56:46.794Z,3.80
2022-10-23T13:59:14.312Z,3.00
2022-10-23T14:01:41.716Z,2.40
2022-10-23T14:04:08.703Z,2.30
2022-10-23T14:06:37.451Z,2.53
2022-10-23T14:09:08.861Z,2.70
2022-10-23T14:11:35.356Z,2.50
2022-10-23T14:14:02.091Z,2.10
2022-10-23T14:16:28.803Z,2.67
2022-10-23T14:18:55.439Z,2.43
2022-10-23T14:21:23.553Z,2.37
2022-10-23T14:23:51.605Z,2.10
2022-10-23T14:26:21.514Z,2.30
2022-10-23T14:28:48.431Z,2.40
2022-10-23T14:31:17.552Z,2.13
2022-10-23T14:33:45.018Z,2.20
2022-10-23T14:36:12.574Z,2.40
2022-10-23T14:38:39.199Z,2.17
2022-10-23T14:41:13.853Z,2.23
2022-10-23T14:43:40.345Z,2.47
2022-10-23T14:46:15.250Z,2.43
2022-10-23T14:48:45.483Z,2.73
2022-10-23T14:51:25.819Z,2.70
2022-10-23T14:53:59.754Z,2.90
2022-10-23T14:56:26.429Z,3.47
2022-10-23T14:58:52.942Z,3.73
2022-10-23T15:01:19.596Z,3.43
2022-10-23T15:03:46.207Z,2.90
2022-10-23T15:06:17.515Z,2.50
2022-10-23T15:08:44.819Z,2.30
2022-10-23T15:11:12.704Z,2.90
2022-10-23T15:13:39.353Z,2.97
2022-10-23T15:16:09.836Z,2.80
2022-10-23T15:21:09.558Z,3.00
2022-10-23T15:23:39.949Z,3.17
2022-10-23T15:26:14.309Z,3.83
2022-10-23T15:28:40.713Z,3.20
2022-10-23T15:31:29.180Z,2.77
2022-10-23T15:33:59.459Z,3.33
2022-10-23T15:36:26.356Z,3.50
2022-10-23T15:38:52.891Z,3.13
2022-10-23T15:41:39.325Z,3.30
2022-10-23T15:44:06.917Z,4.17
2022-10-23T15:46:33.992Z,4.57
2022-10-23T15:49:00.734Z,5.37
2022-10-23T15:51:27.596Z,5.17
2022-10-23T15:53:54.231Z,4.00
2022-10-23T15:56:20.640Z,4.47
2022-10-23T15:58:47.051Z,3.60
2022-10-23T16:01:13.606Z,4.10
2022-10-23T16:03:40.122Z,3.70
2022-10-23T16:06:09.586Z,3.37
2022-10-23T16:08:36.311Z,4.00
2022-10-23T16:11:03.662Z,4.03
2022-10-23T16:13:30.321Z,4.60
2022-10-23T16:15:56.734Z,4.10
2022-10-23T16:18:23.269Z,4.47
2022-10-23T16:20:55.496Z,4.83
2022-10-23T16:23:22.235Z,4.80
2022-10-23T16:25:48.676Z,4.97
2022-10-23T16:28:15.129Z,4.33
2022-10-23T16:30:43.282Z,4.37
2022-10-23T16:33:10.009Z,4.27
2022-10-23T16:35:36.951Z,4.90
2022-10-23T16:38:03.743Z,4.73
2022-10-23T16:40:30.233Z,5.30
2022-10-23T16:42:58.013Z,4.97
2022-10-23T16:45:24.441Z,4.43
2022-10-23T16:47:50.896Z,5.17
2022-10-23T16:50:17.766Z,6.13
2022-10-23T16:52:44.475Z,4.77
2022-10-23T16:55:11.120Z,4.90
2022-10-23T16:57:37.768Z,5.20
2022-10-23T17:00:06.017Z,7.80
2022-10-23T17:02:32.878Z,4.70
2022-10-23T17:04:59.725Z,4.67
2022-10-23T17:07:26.187Z,4.97
2022-10-23T17:09:52.606Z,4.87
2022-10-23T17:12:19.042Z,4.93
2022-10-23T17:14:45.420Z,4.13
2022-10-23T17:17:12.012Z,3.30
2022-10-23T17:19:45.673Z,4.60
2022-10-23T17:22:13.795Z,4.80
2022-10-23T17:24:41.875Z,4.50
2022-10-23T17:27:08.759Z,4.00
2022-10-23T17:29:35.335Z,4.10
2022-10-23T17:32:01.891Z,5.30
2022-10-23T17:34:28.383Z,4.63
2022-10-23T17:36:56.048Z,4.20
2022-10-23T17:39:25.928Z,4.10
2022-10-23T17:41:53.188Z,4.23
2022-10-23T17:44:20.006Z,4.77
2022-10-23T17:46:46.480Z,4.23
2022-10-23T17:49:12.953Z,5.10
2022-10-23T17:51:39.948Z,4.30
2022-10-23T17:54:08.992Z,5.00
2022-10-23T17:56:37.620Z,4.97
2022-10-23T17:59:14.425Z,5.00
2022-10-23T18:01:43.575Z,5.30
2022-10-23T18:04:10.412Z,4.50
2022-10-23T18:06:42.314Z,4.40
2022-10-23T18:09:08.974Z,4.47
2022-10-23T18:11:40.645Z,4.07
2022-10-23T18:14:10.504Z,3.73
2022-10-23T18:16:39.561Z,3.47
2022-10-23T18:19:06.339Z,3.27
2022-10-23T18:21:32.767Z,3.90
2022-10-23T18:24:00.209Z,3.50
2022-10-23T18:26:30.055Z,3.40
2022-10-23T18:28:59.051Z,3.20
2022-10-23T18:31:27.633Z,3.43
2022-10-23T18:33:59.621Z,3.40
2022-10-23T18:36:29.485Z,5.77
2022-10-23T18:38:56.367Z,5.00
2022-10-23T18:41:23.720Z,2.73
2022-10-23T18:43:51.668Z,2.87
2022-10-23T18:46:19.293Z,4.47
2022-10-23T18:48:47.373Z,3.37
2022-10-23T18:51:19.879Z,2.80
2022-10-23T18:53:47.096Z,2.70
2022-10-23T18:56:14.908Z,3.33
2022-10-23T18:58:41.605Z,2.80
2022-10-23T19:01:08.198Z,2.90
2022-10-23T19:03:34.716Z,3.20
2022-10-23T19:06:01.235Z,3.03
2022-10-23T19:08:28.826Z,3.43
2022-10-23T19:10:57.387Z,2.80
2022-10-23T19:13:23.861Z,2.80
2022-10-23T19:15:50.301Z,2.80
2022-10-23T19:18:16.940Z,3.10
2022-10-23T19:20:44.062Z,2.87
2022-10-23T19:23:12.811Z,3.00
2022-10-23T19:25:45.248Z,3.53
2022-10-23T19:28:11.713Z,2.50
2022-10-23T19:30:38.198Z,2.60
2022-10-23T19:33:04.774Z,3.53
2022-10-23T19:35:31.224Z,2.50
2022-10-23T19:37:57.618Z,2.87
2022-10-23T19:40:24.268Z,2.90
2022-10-23T19:42:50.922Z,3.03
2022-10-23T19:45:17.718Z,2.43
2022-10-23T19:47:46.101Z,2.70
2022-10-23T19:50:12.895Z,2.50
2022-10-23T19:52:39.427Z,3.77
2022-10-23T19:55:06.688Z,4.63
2022-10-23T19:57:37.012Z,2.93
2022-10-23T20:00:05.683Z,3.00
2022-10-23T20:05:08.720Z,3.10
2022-10-23T20:07:37.001Z,2.60
2022-10-23T20:10:06.108Z,3.63
2022-10-23T20:12:33.123Z,8.43
2022-10-23T20:15:00.040Z,3.57
2022-10-23T20:17:26.476Z,3.40
2022-10-23T20:19:52.911Z,2.37
2022-10-23T20:22:19.728Z,2.60
2022-10-23T20:24:46.122Z,2.30
2022-10-23T20:27:14.611Z,2.67
2022-10-23T20:29:42.414Z,2.40
2022-10-23T20:32:08.978Z,3.03
2022-10-23T20:34:35.460Z,2.77
2022-10-23T20:37:01.912Z,3.00
2022-10-23T20:39:29.706Z,2.93
2022-10-23T20:41:56.633Z,2.90
2022-10-23T20:44:23.523Z,2.90
2022-10-23T20:46:50.798Z,3.07
2022-10-23T20:49:18.597Z,3.13
2022-10-23T20:51:45.761Z,3.63
2022-10-23T20:54:12.222Z,7.50
2022-10-23T20:56:39.586Z,6.80
2022-10-23T20:59:10.105Z,4.33
2022-10-23T21:01:40.123Z,4.43
2022-10-23T21:04:06.703Z,3.67
2022-10-23T21:06:45.868Z,3.63
2022-10-23T21:09:18.515Z,3.20
2022-10-23T21:11:44.939Z,3.30
2022-10-23T21:14:11.708Z,2.90
2022-10-23T21:16:40.942Z,3.10
2022-10-23T21:19:10.311Z,3.30
2022-10-23T21:21:36.727Z,3.53
2022-10-23T21:24:07.666Z,3.73
2022-10-23T21:26:34.382Z,3.93
2022-10-23T21:29:17.383Z,3.13
2022-10-23T21:31:45.454Z,3.10
2022-10-23T21:34:12.101Z,3.80
2022-10-23T21:36:53.979Z,3.70
2022-10-23T21:39:25.331Z,3.70
2022-10-23T21:41:51.787Z,3.50
2022-10-23T21:44:18.281Z,3.10
2022-10-23T21:46:44.732Z,3.53
2022-10-23T21:49:11.750Z,3.93
2022-10-23T21:51:38.965Z,3.77
2022-10-23T21:54:07.051Z,3.50
2022-10-23T21:56:39.951Z,3.70
2022-10-23T21:59:12.356Z,3.67
2022-10-23T22:01:41.654Z,4.07
2022-10-23T22:04:09.724Z,3.57
2022-10-23T22:06:36.883Z,4.20
2022-10-23T22:09:04.219Z,4.10
2022-10-23T22:11:30.665Z,3.80
2022-10-23T22:13:59.205Z,4.13
2022-10-23T22:16:26.137Z,3.83
2022-10-23T22:18:52.839Z,3.90
2022-10-23T22:21:25.272Z,4.50
2022-10-23T22:23:54.636Z,4.30
2022-10-23T22:26:30.589Z,3.83
2022-10-23T22:29:00.107Z,4.70
2022-10-23T22:31:29.572Z,4.10
2022-10-23T22:33:57.094Z,4.00
2022-10-23T22:36:24.410Z,3.90
2022-10-23T22:38:51.286Z,4.00
2022-10-23T22:41:18.383Z,4.33
2022-10-23T22:43:45.002Z,4.10
2022-10-23T22:46:17.171Z,4.07
2022-10-23T22:48:44.854Z,4.20
2022-10-23T22:51:13.358Z,4.20
2022-10-23T22:53:39.813Z,3.80
2022-10-23T22:56:12.051Z,4.00
2022-10-23T22:58:38.675Z,3.80
2022-10-23T23:01:13.973Z,3.83
2022-10-23T23:03:41.230Z,4.03
2022-10-23T23:06:08.808Z,3.53
2022-10-23T23:08:36.896Z,3.63
2022-10-23T23:11:03.713Z,3.60
2022-10-23T23:13:30.351Z,4.07
2022-10-23T23:15:57.621Z,4.40
2022-10-23T23:18:24.537Z,4.23
2022-10-23T23:20:51.016Z,4.00
2022-10-23T23:23:18.210Z,4.30
2022-10-23T23:25:49.628Z,3.53
2022-10-23T23:28:18.891Z,4.63
2022-10-23T23:33:23.097Z,4.37
2022-10-23T23:35:49.575Z,4.20
2022-10-23T23:38:15.980Z,3.80
2022-10-23T23:40:51.295Z,3.30
2022-10-23T23:43:18.103Z,4.50
2022-10-23T23:45:44.599Z,4.73
2022-10-23T23:48:11.024Z,4.00
2022-10-23T23:50:37.948Z,4.10
2022-10-23T23:53:04.332Z,3.70
2022-10-23T23:55:30.845Z,3.90
2022-10-23T23:57:57.238Z,3.37
